Time;durP1;ratioP1;P1;durP2;ratioP2;P2;SDS_P1;SDS_P2;PMS_P1;PMS_P2;Temp;Humidity;BMP_temperature;BMP_pressure;BME280_temperature;BME280_humidity;BME280_pressure;Samples;Min_cycle;Max_cycle;Signal;HPM_P1;HPM_P2
2022/02/20 00:02:12;;;;;;;8.45;2.02;;;;;;;3.41;62.03;99433.52;1742375;80;22262;-69
2022/02/20 00:04:40;;;;;;;8.30;2.10;;;;;;;3.39;61.56;99438.73;1742944;82;21466;-68
2022/02/20 00:07:06;;;;;;;7.90;2.22;;;;;;;3.40;62.91;99436.98;1742599;82;21036;-69
2022/02/20 00:09:36;;;;;;;9.75;2.05;;;;;;;3.43;61.63;99439.52;1742518;82;21099;-68
2022/02/20 00:12:03;;;;;;;7.70;2.15;;;;;;;3.46;61.72;99442.94;1742659;82;21046;-67
2022/02/20 00:14:30;;;;;;;5.45;1.95;;;;;;;3.49;61.83;99438.96;1742988;82;21094;-69
2022/02/20 00:16:57;;;;;;;5.58;2.47;;;;;;;3.57;60.87;99447.49;1742244;80;21211;-69
2022/02/20 00:19:24;;;;;;;5.42;1.90;;;;;;;3.64;61.24;99442.18;1744514;82;21046;-69
2022/02/20 00:21:50;;;;;;;7.20;2.22;;;;;;;3.64;61.37;99442.18;1750379;82;21055;-68
2022/02/20 00:24:17;;;;;;;6.62;2.02;;;;;;;3.66;60.41;99448.19;1750738;82;21464;-68
2022/02/20 00:26:44;;;;;;;6.75;2.47;;;;;;;3.68;61.95;99449.02;1750676;82;21102;-69
2022/02/20 00:29:10;;;;;;;5.00;1.87;;;;;;;3.68;60.54;99454.22;1750596;82;21094;-69
2022/02/20 00:31:37;;;;;;;6.03;2.12;;;;;;;3.68;60.60;99447.72;1750451;82;21043;-68
2022/02/20 00:34:03;;;;;;;6.37;2.35;;;;;;;3.68;61.12;99460.31;1750464;81;21095;-68
2022/02/20 00:36:31;;;;;;;9.20;2.60;;;;;;;3.67;60.57;99456.42;1750620;82;21062;-69
2022/02/20 00:40:51;;;;;;;7.00;2.20;;;;;;;3.62;60.99;99452.61;1796676;79;24137;-68
2022/02/20 00:43:18;;;;;;;8.65;2.30;;;;;;;3.57;62.35;99461.81;1756527;81;21534;-67
2022/02/20 00:45:45;;;;;;;8.33;2.60;;;;;;;3.53;62.44;99456.25;1756334;81;21125;-68
2022/02/20 00:48:17;;;;;;;5.95;2.27;;;;;;;3.53;61.53;99462.75;1756146;81;21013;-68
2022/02/20 00:50:41;;;;;;;4.45;2.35;;;;;;;3.45;63.03;99464.66;1756069;81;21523;-69
2022/02/20 00:53:08;;;;;;;5.35;2.35;;;;;;;3.52;61.74;99485.78;1756120;81;21053;-69
2022/02/20 00:55:36;;;;;;;8.63;2.50;;;;;;;3.55;62.85;99474.00;1756426;81;21091;-69
2022/02/20 00:58:02;;;;;;;7.30;2.55;;;;;;;3.57;62.93;99486.55;1737047;81;22120;-68
2022/02/20 01:00:31;;;;;;;8.30;2.92;;;;;;;3.58;61.98;99476.53;1743115;81;20983;-69
2022/02/20 01:02:59;;;;;;;4.42;2.37;;;;;;;3.60;63.13;99482.17;1726104;82;21083;-68
2022/02/20 01:05:26;;;;;;;6.90;2.60;;;;;;;3.57;61.96;99481.80;1726241;82;21007;-69
2022/02/20 01:07:53;;;;;;;8.55;2.55;;;;;;;3.56;62.96;99486.12;1726147;83;21578;-67
2022/02/20 01:10:20;;;;;;;7.75;2.75;;;;;;;3.47;62.64;99488.89;1726264;83;21126;-68
2022/02/20 01:12:49;;;;;;;9.28;2.80;;;;;;;3.43;62.46;99483.35;1725983;83;21542;-67
2022/02/20 01:15:16;;;;;;;7.12;2.50;;;;;;;3.38;64.26;99492.11;1726191;81;21050;-68
2022/02/20 01:17:43;;;;;;;8.08;3.08;;;;;;;3.32;62.86;99500.90;1727061;82;21094;-69
2022/02/20 01:20:11;;;;;;;5.58;2.50;;;;;;;3.26;63.12;99510.11;1728791;82;21042;-68
2022/02/20 01:22:39;;;;;;;12.20;3.40;;;;;;;3.22;64.61;99512.34;1726171;83;21102;-69
2022/02/20 01:25:06;;;;;;;6.97;2.55;;;;;;;3.17;63.61;99514.16;1726473;83;21027;-70
2022/02/20 01:27:32;;;;;;;4.58;1.90;;;;;;;3.14;64.40;99525.03;1725935;82;22133;-69
2022/02/20 01:29:59;;;;;;;7.65;2.50;;;;;;;3.11;64.87;99530.30;1726293;82;21563;-69
2022/02/20 01:32:26;;;;;;;5.28;2.52;;;;;;;3.08;64.39;99532.97;1726532;82;21051;-68
2022/02/20 01:34:52;;;;;;;6.78;2.65;;;;;;;3.08;66.10;99536.87;1726043;83;21149;-69
2022/02/20 01:37:19;;;;;;;5.55;2.30;;;;;;;3.08;64.90;99530.36;1725738;83;21063;-68
2022/02/20 01:39:45;;;;;;;5.10;2.35;;;;;;;3.11;65.66;99549.81;1679442;84;21037;-67
2022/02/20 01:42:14;;;;;;;8.85;2.87;;;;;;;3.11;65.66;99549.81;1659654;86;21064;-68
2022/02/20 01:44:41;;;;;;;6.00;2.40;;;;;;;3.15;64.83;99546.29;1660582;86;21032;-68
2022/02/20 01:47:09;;;;;;;7.35;2.70;;;;;;;3.19;66.69;99549.68;1660629;86;21109;-67
2022/02/20 01:49:42;;;;;;;4.58;2.25;;;;;;;3.23;64.72;99558.31;1662707;84;21017;-68
2022/02/20 01:52:09;;;;;;;6.90;2.75;;;;;;;3.25;65.22;99557.40;1693824;84;21056;-68
2022/02/20 01:54:38;;;;;;;5.15;2.50;;;;;;;3.27;65.87;99554.78;1714818;83;21087;-68
2022/02/20 01:57:05;;;;;;;9.08;2.75;;;;;;;3.28;64.51;99553.88;1722947;83;21015;-68
2022/02/20 01:59:34;;;;;;;5.97;2.75;;;;;;;3.32;65.27;99568.57;1720263;81;21083;-69
2022/02/20 02:02:19;;;;;;;6.62;2.27;;;;;;;3.31;65.10;99559.91;1676797;85;21135;-68
2022/02/20 02:05:05;;;;;;;8.60;2.60;;;;;;;3.33;64.27;99566.37;1712384;82;21553;-69
2022/02/20 02:07:34;;;;;;;7.05;2.20;;;;;;;3.36;64.80;99562.44;1723047;82;21058;-69
2022/02/20 02:10:10;;;;;;;7.62;2.50;;;;;;;3.37;65.12;99564.14;1676846;85;21061;-68
2022/02/20 02:12:39;;;;;;;5.30;2.17;;;;;;;3.37;64.28;99574.55;1690077;83;21167;-67
2022/02/20 02:15:24;;;;;;;9.53;2.52;;;;;;;3.40;66.14;99574.48;1722762;81;21091;-67
2022/02/20 02:18:05;;;;;;;;;;;;;;;3.40;64.89;99583.59;1696937;82;21101;-68
2022/02/20 02:20:37;;;;;;;5.50;2.27;;;;;;;3.41;64.87;99584.03;1721690;82;20479;-68
2022/02/20 02:23:19;;;;;;;8.63;2.35;;;;;;;3.37;66.38;99574.55;1721433;82;21403;-67
2022/02/20 02:25:52;;;;;;;9.08;2.65;;;;;;;3.34;65.42;99581.13;1722449;82;21262;-68
2022/02/20 02:28:20;;;;;;;8.68;2.20;;;;;;;3.35;65.36;99581.52;1694006;82;21059;-68
2022/02/20 02:30:48;;;;;;;7.37;2.47;;;;;;;3.29;65.72;99582.91;1722207;82;21015;-68
2022/02/20 02:33:29;;;;;;;8.33;2.55;;;;;;;3.25;65.15;99582.56;1722943;82;21121;-68
2022/02/20 02:35:57;;;;;;;5.30;2.05;;;;;;;3.21;66.04;99583.50;1723149;83;21056;-67
2022/02/20 02:38:26;;;;;;;7.67;3.00;;;;;;;3.18;66.99;99576.59;1723123;83;21096;-69
2022/02/20 02:40:57;;;;;;;9.80;2.70;;;;;;;3.15;65.96;99580.11;1704195;83;21030;-68
2022/02/20 02:43:24;;;;;;;7.20;2.50;;;;;;;3.14;68.11;99577.52;1722905;82;21039;-68
2022/02/20 02:45:52;;;;;;;8.18;2.67;;;;;;;3.09;66.56;99580.20;1722912;83;21599;-68
2022/02/20 02:48:19;;;;;;;6.78;2.85;;;;;;;3.03;66.51;99577.67;1722671;83;21102;-68
2022/02/20 02:50:46;;;;;;;5.85;2.52;;;;;;;3.00;68.33;99581.64;1722651;82;21479;-69
2022/02/20 02:53:12;;;;;;;11.28;2.85;;;;;;;2.96;67.00;99598.16;1722822;82;21107;-68
2022/02/20 02:55:48;;;;;;;8.98;2.60;;;;;;;2.91;67.53;99590.88;1723904;83;21050;-68
2022/02/20 02:58:23;;;;;;;10.72;2.60;;;;;;;2.85;68.18;99600.05;1724496;83;21047;-68
2022/02/20 03:00:52;;;;;;;5.95;2.47;;;;;;;2.79;67.91;99601.47;1722690;81;21052;-68
2022/02/20 03:03:20;;;;;;;6.42;3.02;;;;;;;2.75;69.15;99597.18;1722779;82;21870;-67
2022/02/20 03:05:47;;;;;;;9.95;2.87;;;;;;;2.68;69.06;99599.85;1722653;83;21002;-68
2022/02/20 03:08:16;;;;;;;10.72;2.92;;;;;;;2.68;69.06;99599.85;1722613;82;21075;-67
2022/02/20 03:10:43;;;;;;;9.13;2.98;;;;;;;2.63;70.02;99601.66;1722606;83;21061;-68
2022/02/20 03:13:13;;;;;;;8.20;2.47;;;;;;;2.59;68.97;99612.12;1687855;85;21104;-67
2022/02/20 03:15:41;;;;;;;10.25;2.90;;;;;;;2.56;70.35;99610.87;1687797;83;21811;-68
2022/02/20 03:18:08;;;;;;;9.95;3.05;;;;;;;2.50;70.52;99618.28;1704375;83;21032;-69
2022/02/20 03:20:36;;;;;;;6.62;2.75;;;;;;;2.48;70.30;99613.09;1722820;82;21037;-69
2022/02/20 03:23:03;;;;;;;8.65;3.10;;;;;;;2.45;71.77;99614.89;1722661;83;21038;-68
2022/02/20 03:25:31;;;;;;;12.00;3.37;;;;;;;2.41;70.27;99631.39;1722844;82;21092;-68
2022/02/20 03:28:00;;;;;;;5.45;2.87;;;;;;;2.36;70.88;99637.94;1687965;85;21096;-68
2022/02/20 03:30:29;;;;;;;7.42;3.45;;;;;;;2.35;72.47;99641.84;1722139;82;21021;-69
2022/02/20 03:32:57;;;;;;;15.32;3.22;;;;;;;2.34;71.02;99639.70;1722727;82;21085;-68
2022/02/20 03:35:24;;;;;;;10.10;3.12;;;;;;;2.35;72.35;99636.66;1722738;82;21065;-68
2022/02/20 03:37:51;;;;;;;10.93;3.50;;;;;;;2.37;72.04;99645.29;1722631;82;21602;-68
2022/02/20 03:40:19;;;;;;;10.90;2.85;;;;;;;2.37;72.04;99645.29;1704689;83;21103;-67
2022/02/20 03:42:47;;;;;;;10.13;3.58;;;;;;;2.36;73.41;99642.28;1722649;83;21025;-69
2022/02/20 03:45:18;;;;;;;7.33;3.15;;;;;;;2.34;71.73;99637.55;1671457;82;21514;-69
2022/02/20 03:47:51;;;;;;;6.93;3.00;;;;;;;2.33;73.30;99638.44;1687903;85;21060;-69
2022/02/20 03:50:18;;;;;;;11.10;3.35;;;;;;;2.29;72.73;99634.55;1704419;83;21069;-68
2022/02/20 03:52:47;;;;;;;7.72;2.98;;;;;;;2.25;72.46;99632.86;1687486;85;21135;-69
2022/02/20 03:55:17;;;;;;;10.72;3.62;;;;;;;2.23;75.09;99633.34;1722497;82;21200;-68
2022/02/20 03:57:45;;;;;;;8.05;2.72;;;;;;;2.20;73.04;99635.95;1722532;83;21040;-68
2022/02/20 04:00:21;;;;;;;8.85;2.92;;;;;;;2.15;73.48;99635.15;1722537;81;21055;-69
2022/02/20 04:02:53;;;;;;;8.90;2.80;;;;;;;2.07;74.62;99636.54;1686682;85;21053;-67
2022/02/20 04:05:21;;;;;;;9.35;3.37;;;;;;;2.03;73.35;99649.57;1687943;84;22096;-68
2022/02/20 04:07:48;;;;;;;11.30;3.37;;;;;;;2.00;75.16;99644.39;1687551;85;21096;-69
2022/02/20 04:10:16;;;;;;;7.50;2.98;;;;;;;1.99;74.60;99647.88;1687564;85;21471;-68
2022/02/20 04:12:43;;;;;;;15.00;2.98;;;;;;;1.96;74.19;99659.60;1687603;85;21116;-69
2022/02/20 04:15:12;;;;;;;13.03;3.08;;;;;;;1.93;75.98;99658.31;1687717;83;21053;-69
2022/02/20 04:17:42;;;;;;;7.05;3.15;;;;;;;1.87;74.63;99660.09;1687562;85;22011;-68
2022/02/20 04:20:09;;;;;;;10.15;3.20;;;;;;;1.82;76.43;99661.03;1687613;84;21056;-67
2022/02/20 04:22:39;;;;;;;7.87;3.17;;;;;;;1.82;76.43;99661.03;1687466;84;21549;-67
2022/02/20 04:25:08;;;;;;;7.20;2.90;;;;;;;1.80;75.70;99659.73;1687609;84;21106;-68
2022/02/20 04:27:35;;;;;;;8.83;3.02;;;;;;;1.77;77.16;99671.45;1704728;83;21076;-68
2022/02/20 04:30:04;;;;;;;10.00;3.42;;;;;;;1.73;76.62;99658.06;1722916;82;21528;-69
2022/02/20 04:32:33;;;;;;;4.97;2.60;;;;;;;1.69;76.40;99661.56;1661429;85;21089;-68
2022/02/20 04:35:01;;;;;;;9.88;3.12;;;;;;;1.68;78.02;99665.05;1690423;85;21127;-68
2022/02/20 04:37:28;;;;;;;10.50;3.22;;;;;;;1.65;76.41;99664.60;1687597;84;21636;-69
2022/02/20 04:39:55;;;;;;;8.63;3.42;;;;;;;1.65;77.09;99665.05;1686996;84;21040;-69
2022/02/20 04:42:22;;;;;;;14.23;3.33;;;;;;;1.63;77.75;99666.78;1678329;85;21139;-68
2022/02/20 04:44:54;;;;;;;10.30;3.22;;;;;;;1.61;77.51;99667.23;1677243;85;21036;-67
2022/02/20 04:47:22;;;;;;;10.00;3.37;;;;;;;1.57;79.85;99668.16;1712720;82;21170;-68
2022/02/20 04:49:49;;;;;;;12.30;3.65;;;;;;;1.53;77.85;99674.23;1713020;82;21077;-68
2022/02/20 04:52:17;;;;;;;11.73;3.37;;;;;;;1.49;78.47;99669.49;1678127;85;21049;-68
2022/02/20 04:55:01;;;;;;;7.78;3.50;;;;;;;1.46;79.56;99678.16;1678518;85;21177;-68
2022/02/20 04:57:37;;;;;;;8.13;3.60;;;;;;;1.42;78.32;99675.16;1678469;85;20982;-68
2022/02/20 05:00:08;;;;;;;10.28;3.35;;;;;;;1.44;79.66;99684.23;1678640;84;21049;-69
2022/02/20 05:02:53;;;;;;;10.20;3.62;;;;;;;1.40;79.91;99684.72;1678356;85;21100;-68
2022/02/20 05:05:20;;;;;;;8.83;3.62;;;;;;;1.37;79.09;99689.91;1678657;85;21104;-68
2022/02/20 05:07:48;;;;;;;12.20;4.25;;;;;;;1.37;80.71;99696.39;1678268;85;21161;-67
2022/02/20 05:10:16;;;;;;;9.45;4.10;;;;;;;1.37;80.43;99694.23;1678401;85;20985;-68
2022/02/20 05:12:43;;;;;;;12.25;3.75;;;;;;;1.34;79.56;99701.61;1678220;85;21052;-69
2022/02/20 05:15:10;;;;;;;15.00;4.17;;;;;;;1.33;80.98;99702.47;1678340;84;21022;-68
2022/02/20 05:17:39;;;;;;;12.45;3.67;;;;;;;1.32;79.82;99704.65;1712710;82;21132;-68
2022/02/20 05:20:08;;;;;;;7.87;3.40;;;;;;;1.34;81.05;99711.13;1713221;82;21093;-69
2022/02/20 05:22:37;;;;;;;9.78;3.65;;;;;;;1.34;81.82;99711.98;1712824;82;28243;-68
2022/02/20 05:25:07;;;;;;;8.35;3.00;;;;;;;1.36;80.14;99723.22;1678641;85;21545;-68
2022/02/20 05:27:35;;;;;;;13.08;3.90;;;;;;;1.38;81.98;99731.86;1678646;85;21065;-67
2022/02/20 05:30:04;;;;;;;10.03;3.33;;;;;;;1.39;80.91;99726.23;1678492;85;21113;-68
2022/02/20 05:32:32;;;;;;;9.93;3.47;;;;;;;1.40;80.40;99731.42;1713075;83;21089;-68
2022/02/20 05:35:01;;;;;;;10.50;3.25;;;;;;;1.41;82.25;99733.13;1678304;85;21040;-69
2022/02/20 05:37:43;;;;;;;9.60;3.37;;;;;;;1.40;80.05;99730.53;1678562;85;21061;-69
2022/02/20 05:40:12;;;;;;;8.98;2.98;;;;;;;1.40;81.50;99739.20;1680678;84;21050;-69
2022/02/20 05:42:41;;;;;;;8.25;3.70;;;;;;;1.41;81.29;99743.52;1720550;83;21081;-69
2022/02/20 05:45:08;;;;;;;8.48;3.47;;;;;;;1.45;79.69;99743.92;1721013;83;21132;-68
2022/02/20 05:47:35;;;;;;;9.25;3.08;;;;;;;1.49;81.72;99743.89;1720608;83;21033;-69
2022/02/20 05:50:06;;;;;;;10.90;3.70;;;;;;;1.50;79.97;99737.85;1685963;85;21092;-69
2022/02/20 05:52:33;;;;;;;8.43;2.90;;;;;;;1.51;79.88;99743.01;1658567;85;21112;-68
2022/02/20 05:54:59;;;;;;;9.60;3.42;;;;;;;1.53;81.75;99741.27;1706477;83;21063;-68
2022/02/20 05:57:26;;;;;;;8.63;3.33;;;;;;;1.56;79.25;99742.98;1723598;82;21120;-68
2022/02/20 05:59:55;;;;;;;9.33;2.87;;;;;;;1.61;80.52;99751.59;1723299;81;21050;-68
2022/02/20 06:02:22;;;;;;;9.50;3.55;;;;;;;1.65;79.61;99758.49;1723391;81;21633;-68
2022/02/20 06:04:51;;;;;;;9.55;3.58;;;;;;;1.76;78.72;99757.98;1723813;83;21579;-68
2022/02/20 06:07:25;;;;;;;12.43;3.30;;;;;;;2.28;79.74;99761.47;1684527;82;21086;-69
2022/02/20 06:09:59;;;;;;;16.93;4.30;;;;;;;3.07;74.34;99758.88;1722558;82;21121;-68
2022/02/20 06:12:32;;;;;;;11.00;3.37;;;;;;;3.87;69.98;99765.58;1705053;83;21559;-68
2022/02/20 06:15:09;;;;;;;13.68;3.58;;;;;;;4.61;69.70;99763.02;1697071;81;21003;-69
2022/02/20 06:17:44;;;;;;;6.78;2.90;;;;;;;5.29;63.53;99761.25;1721742;82;21112;-69
2022/02/20 06:20:31;;;;;;;9.65;3.47;;;;;;;5.79;61.67;99766.22;1723136;82;21603;-69
2022/02/20 06:23:06;;;;;;;11.10;3.58;;;;;;;6.39;62.15;99759.09;1721762;82;21130;-69
2022/02/20 06:25:50;;;;;;;10.58;3.55;;;;;;;7.00;58.23;99760.98;1723956;82;21031;-68
2022/02/20 06:28:19;;;;;;;9.53;3.08;;;;;;;7.62;55.34;99762.66;1722591;82;21040;-69
2022/02/20 06:30:46;;;;;;;9.90;3.02;;;;;;;7.97;53.74;99778.58;1723653;82;21091;-69
2022/02/20 06:33:14;;;;;;;8.58;3.37;;;;;;;8.19;51.88;99770.89;1722406;82;21340;-69
2022/02/20 06:35:41;;;;;;;8.45;3.10;;;;;;;8.55;52.33;99775.36;1722964;83;21913;-69
2022/02/20 06:38:09;;;;;;;8.70;3.10;;;;;;;8.93;50.23;99779.73;1720376;83;21068;-69
2022/02/20 06:40:36;;;;;;;6.55;3.00;;;;;;;9.31;48.19;99772.20;1721415;83;21606;-68
2022/02/20 06:43:03;;;;;;;7.65;3.27;;;;;;;9.58;49.06;99770.77;1725779;83;21088;-69
2022/02/20 06:45:31;;;;;;;7.87;3.25;;;;;;;9.82;46.87;99776.39;1725922;82;21557;-68
2022/02/20 06:48:02;;;;;;;5.97;2.83;;;;;;;9.86;46.20;99776.65;1690234;84;21134;-69
2022/02/20 06:50:46;;;;;;;12.18;3.25;;;;;;;10.07;46.95;99780.66;1690111;84;21072;-69
2022/02/20 06:53:14;;;;;;;9.88;3.70;;;;;;;10.50;44.96;99789.45;1669692;84;21096;-68
2022/02/20 06:55:46;;;;;;;7.12;3.08;;;;;;;10.79;43.99;99797.88;1688485;84;21040;-68
2022/02/20 06:58:14;;;;;;;9.10;3.12;;;;;;;10.80;44.04;99800.92;1673487;85;21033;-69
2022/02/20 07:00:40;;;;;;;6.53;3.05;;;;;;;10.91;43.24;99797.36;1673452;84;21109;-68
2022/02/20 07:03:08;;;;;;;7.25;3.25;;;;;;;10.92;43.77;99795.11;1673433;85;21582;-70
2022/02/20 07:05:34;;;;;;;10.90;3.58;;;;;;;11.05;42.76;99796.28;1673643;85;21105;-69
2022/02/20 07:08:00;;;;;;;7.15;3.10;;;;;;;11.25;42.09;99790.56;1673380;85;21123;-70
2022/02/20 07:10:28;;;;;;;8.68;2.75;;;;;;;11.27;42.90;99790.04;1673592;85;21094;-70
2022/02/20 07:12:55;;;;;;;6.33;2.42;;;;;;;11.61;41.71;99788.50;1673709;85;21195;-70
2022/02/20 07:15:25;;;;;;;8.55;2.60;;;;;;;11.99;40.96;99790.68;1673602;84;21057;-69
2022/02/20 07:17:52;;;;;;;7.97;3.35;;;;;;;12.17;40.63;99791.58;1673520;85;21578;-70
2022/02/20 07:20:19;;;;;;;6.33;2.72;;;;;;;12.56;40.11;99786.53;1673672;85;21065;-71
2022/02/20 07:22:46;;;;;;;5.50;2.40;;;;;;;12.76;39.82;99787.70;1673591;85;21100;-69
2022/02/20 07:25:13;;;;;;;5.95;2.33;;;;;;;13.18;38.67;99794.34;1673822;85;21104;-71
2022/02/20 07:27:43;;;;;;;7.05;2.08;;;;;;;13.70;38.00;99799.09;1673528;85;21593;-70
2022/02/20 07:30:10;;;;;;;6.17;2.40;;;;;;;13.94;36.85;99791.12;1673840;85;21057;-70
2022/02/20 07:32:38;;;;;;;6.40;2.22;;;;;;;14.09;36.02;99786.73;1673495;85;21056;-68
2022/02/20 07:35:06;;;;;;;4.90;2.10;;;;;;;14.37;36.47;99785.98;1673626;85;21597;-69
2022/02/20 07:37:32;;;;;;;6.55;2.22;;;;;;;14.66;34.88;99783.47;1673311;85;21930;-68
2022/02/20 07:40:00;;;;;;;7.00;1.98;;;;;;;14.63;34.50;99784.52;1673561;85;21557;-69
2022/02/20 07:42:27;;;;;;;7.42;2.42;;;;;;;14.52;34.81;99780.76;1667702;85;21045;-71
2022/02/20 07:44:53;;;;;;;4.70;1.92;;;;;;;14.51;34.13;99794.94;1665721;86;21029;-70
2022/02/20 07:47:20;;;;;;;6.17;2.20;;;;;;;14.50;34.73;99797.22;1666671;86;21105;-69
2022/02/20 07:49:46;;;;;;;6.80;2.20;;;;;;;14.06;34.85;99799.68;1667389;86;21421;-70
2022/02/20 07:52:13;;;;;;;4.05;2.25;;;;;;;13.81;35.01;99799.35;1665428;86;21086;-71
2022/02/20 07:54:40;;;;;;;6.42;2.25;;;;;;;13.91;35.83;99792.59;1665621;86;21064;-70
2022/02/20 07:57:07;;;;;;;7.12;2.62;;;;;;;13.93;34.97;99780.60;1665633;86;21149;-70
2022/02/20 07:59:34;;;;;;;4.05;1.95;;;;;;;13.70;35.35;99772.63;1665352;84;21109;-70
2022/02/20 08:02:02;;;;;;;3.98;2.02;;;;;;;13.79;36.33;99768.14;1678396;85;21143;-70
2022/02/20 08:04:28;;;;;;;6.67;2.05;;;;;;;14.05;35.05;99766.18;1712925;83;21024;-71
2022/02/20 08:06:55;;;;;;;5.80;2.02;;;;;;;14.11;35.38;99766.80;1712842;83;21536;-69
2022/02/20 08:09:21;;;;;;;5.80;2.15;;;;;;;14.41;34.47;99768.98;1712829;82;21060;-69
2022/02/20 08:11:50;;;;;;;5.42;2.52;;;;;;;14.75;33.64;99764.37;1712916;82;21027;-70
2022/02/20 08:14:18;;;;;;;5.30;2.20;;;;;;;14.89;33.26;99760.88;1712698;82;21127;-70
2022/02/20 08:16:44;;;;;;;8.83;2.33;;;;;;;14.97;32.76;99771.02;1712831;82;21093;-71
2022/02/20 08:19:10;;;;;;;6.45;2.20;;;;;;;15.14;33.92;99766.87;1713060;82;21055;-70
2022/02/20 08:21:38;;;;;;;4.53;2.33;;;;;;;15.21;32.73;99766.86;1712754;83;21061;-69
2022/02/20 08:24:06;;;;;;;6.75;2.50;;;;;;;14.89;32.05;99772.33;1712929;83;21050;-69
2022/02/20 08:26:33;;;;;;;7.42;2.10;;;;;;;14.80;32.93;99775.55;1713094;83;21145;-69
2022/02/20 08:28:59;;;;;;;5.20;2.10;;;;;;;14.46;32.50;99780.16;1713138;83;21563;-69
2022/02/20 08:31:26;;;;;;;7.58;2.58;;;;;;;14.56;32.57;99769.05;1712744;83;21033;-69
2022/02/20 08:33:53;;;;;;;6.70;2.77;;;;;;;15.01;32.83;99767.23;1713057;83;21036;-69
2022/02/20 08:36:20;;;;;;;6.10;2.17;;;;;;;15.64;32.12;99765.47;1712843;82;21126;-70
2022/02/20 08:38:49;;;;;;;5.87;2.95;;;;;;;16.17;31.02;99762.13;1712951;82;21091;-70
2022/02/20 08:41:16;;;;;;;8.20;2.35;;;;;;;16.24;30.30;99764.75;1712857;82;21689;-70
2022/02/20 08:43:42;;;;;;;4.92;2.52;;;;;;;16.05;30.43;99775.73;1712833;83;21024;-70
2022/02/20 08:46:09;;;;;;;9.80;3.35;;;;;;;15.97;31.19;99777.58;1712840;83;21039;-70
2022/02/20 08:48:36;;;;;;;5.05;2.70;;;;;;;16.24;30.43;99769.61;1712655;83;21095;-70
2022/02/20 08:51:06;;;;;;;4.92;2.47;;;;;;;16.17;30.81;99771.42;1712751;82;21004;-71
2022/02/20 08:53:32;;;;;;;8.40;2.83;;;;;;;16.21;30.49;99768.46;1712933;82;21085;-69
2022/02/20 08:55:58;;;;;;;6.03;2.30;;;;;;;16.18;30.28;99775.80;1713034;83;21078;-70
2022/02/20 08:58:25;;;;;;;6.15;2.37;;;;;;;16.17;30.88;99771.42;1713003;83;21102;-70
2022/02/20 09:00:52;;;;;;;5.05;2.33;;;;;;;15.89;30.41;99784.70;1712984;83;20979;-71
2022/02/20 09:03:18;;;;;;;7.03;2.33;;;;;;;15.41;31.12;99784.66;1713313;83;21085;-70
2022/02/20 09:05:45;;;;;;;9.78;2.70;;;;;;;15.19;31.48;99784.67;1713160;82;21507;-70
2022/02/20 09:08:13;;;;;;;5.37;2.45;;;;;;;15.01;31.76;99780.49;1713008;82;21058;-71
2022/02/20 09:10:42;;;;;;;7.67;2.65;;;;;;;14.94;32.46;99781.81;1713051;82;21026;-70
2022/02/20 09:13:10;;;;;;;6.17;2.58;;;;;;;15.35;31.35;99771.80;1713113;83;21053;-70
2022/02/20 09:15:37;;;;;;;6.47;2.55;;;;;;;15.78;31.06;99779.70;1713164;83;21302;-69
2022/02/20 09:18:05;;;;;;;8.78;2.72;;;;;;;15.88;31.02;99779.50;1713121;82;21495;-69
2022/02/20 09:20:32;;;;;;;6.42;3.10;;;;;;;16.25;30.28;99780.59;1713048;83;21002;-70
2022/02/20 09:22:58;;;;;;;8.08;3.05;;;;;;;16.41;30.75;99775.60;1713621;82;21073;-70
2022/02/20 09:25:25;;;;;;;5.22;2.20;;;;;;;15.78;30.37;99781.91;1715733;83;20982;-70
2022/02/20 09:27:53;;;;;;;7.53;2.83;;;;;;;15.68;30.54;99784.72;1713982;83;21144;-70
2022/02/20 09:30:20;;;;;;;6.78;2.90;;;;;;;15.46;31.37;99793.17;1708192;82;21061;-70
2022/02/20 09:32:47;;;;;;;5.15;2.50;;;;;;;15.11;31.26;99796.20;1678731;85;21069;-70
2022/02/20 09:35:15;;;;;;;11.45;2.40;;;;;;;15.02;31.93;99792.34;1678559;85;21106;-70
2022/02/20 09:37:42;;;;;;;12.20;3.22;;;;;;;14.23;32.73;99791.23;1678924;85;21041;-70
2022/02/20 09:40:10;;;;;;;6.92;2.75;;;;;;;12.94;34.38;99799.11;1678720;85;21906;-69
2022/02/20 09:42:38;;;;;;;7.62;2.58;;;;;;;12.20;36.17;99799.34;1685447;84;21021;-69
2022/02/20 09:45:05;;;;;;;8.65;2.67;;;;;;;11.99;36.13;99810.95;1691459;84;21061;-70
2022/02/20 09:47:37;;;;;;;9.18;3.02;;;;;;;11.90;37.31;99810.45;1691671;84;21128;-69
2022/02/20 09:50:02;;;;;;;7.62;3.10;;;;;;;11.65;38.42;99804.11;1691023;84;21573;-69
2022/02/20 09:52:29;;;;;;;10.08;3.20;;;;;;;11.48;38.34;99802.70;1665929;84;21122;-69
2022/02/20 09:54:56;;;;;;;10.55;3.85;;;;;;;10.83;40.51;99812.63;1720271;83;21067;-69
2022/02/20 09:57:22;;;;;;;10.53;3.70;;;;;;;10.41;41.37;99810.89;1725956;82;21814;-69
2022/02/20 09:59:49;;;;;;;7.15;3.20;;;;;;;10.17;42.31;99813.59;1725792;81;21614;-69
2022/02/20 10:02:18;;;;;;;11.08;3.60;;;;;;;10.67;41.50;99802.77;1725725;81;21102;-69
2022/02/20 10:04:53;;;;;;;8.80;3.45;;;;;;;11.21;39.94;99797.78;1725581;82;22114;-69
2022/02/20 10:07:38;;;;;;;14.60;3.95;;;;;;;11.45;40.08;99792.31;1725696;82;21047;-69
2022/02/20 10:10:21;;;;;;;8.43;3.33;;;;;;;11.99;39.06;99795.11;1725771;82;21051;-69
2022/02/20 10:13:03;;;;;;;7.22;3.20;;;;;;;12.82;36.63;99779.09;1725800;83;21027;-69
2022/02/20 10:15:35;;;;;;;8.78;2.87;;;;;;;13.52;36.08;99776.66;1726017;81;21070;-70
2022/02/20 10:18:23;;;;;;;8.08;3.10;;;;;;;13.20;35.17;99777.05;1650681;86;22154;-69
2022/02/20 10:21:10;;;;;;;5.90;3.08;;;;;;;13.26;34.78;99774.56;1614800;86;21063;-68
2022/02/20 10:24:07;;;;;;;9.25;3.40;;;;;;;13.64;33.91;99769.39;1691784;82;21131;-70
2022/02/20 10:26:52;;;;;;;11.88;3.62;;;;;;;13.67;34.36;99763.55;1726082;83;21008;-70
2022/02/20 10:29:37;;;;;;;7.40;3.70;;;;;;;13.94;33.51;99752.73;1725935;83;21078;-70
2022/02/20 10:32:04;;;;;;;6.40;2.80;;;;;;;13.93;32.89;99760.27;1725883;82;21112;-71
2022/02/20 10:34:37;;;;;;;6.55;3.40;;;;;;;13.90;33.20;99760.45;1725702;83;21626;-70
2022/02/20 10:37:06;;;;;;;10.00;3.50;;;;;;;13.75;32.90;99750.25;1725620;82;21023;-70
2022/02/20 10:39:35;;;;;;;7.85;3.27;;;;;;;13.70;33.11;99748.34;1725841;82;21051;-69
2022/02/20 10:42:12;;;;;;;10.98;3.20;;;;;;;13.68;33.68;99734.33;1725323;82;21289;-68
2022/02/20 10:44:56;;;;;;;9.65;3.72;;;;;;;14.14;33.23;99731.70;1720616;83;21023;-70
2022/02/20 10:47:23;;;;;;;9.68;3.98;;;;;;;14.63;32.94;99724.88;1720401;83;21027;-70
2022/02/20 10:49:50;;;;;;;8.70;3.27;;;;;;;14.90;32.30;99735.58;1699818;83;21023;-70
2022/02/20 10:52:32;;;;;;;8.28;3.62;;;;;;;14.37;31.88;99736.98;1691964;84;21686;-70
2022/02/20 10:55:08;;;;;;;9.03;3.30;;;;;;;14.30;33.67;99731.67;1716275;83;21009;-70
2022/02/20 10:57:44;;;;;;;21.33;4.58;;;;;;;14.88;31.57;99728.22;1720989;83;21487;-70
2022/02/20 11:00:20;;;;;;;8.13;3.10;;;;;;;14.94;31.58;99715.53;1720410;82;21031;-70
2022/02/20 11:02:49;;;;;;;9.68;3.22;;;;;;;14.90;31.26;99713.05;1720534;83;21610;-70
2022/02/20 11:05:15;;;;;;;13.25;3.60;;;;;;;14.97;31.02;99715.33;1718373;83;21130;-69
2022/02/20 11:07:41;;;;;;;9.98;3.42;;;;;;;15.03;30.71;99716.28;1720961;82;21623;-69
2022/02/20 11:10:10;;;;;;;19.10;3.77;;;;;;;15.00;31.04;99708.50;1720458;83;21147;-69
2022/02/20 11:12:38;;;;;;;10.63;3.40;;;;;;;14.25;31.49;99723.99;1720715;83;21662;-69
2022/02/20 11:15:06;;;;;;;7.97;3.40;;;;;;;13.53;33.43;99714.89;1720609;82;21696;-69
2022/02/20 11:17:35;;;;;;;11.12;3.30;;;;;;;12.59;34.13;99714.61;1720786;83;21111;-70
2022/02/20 11:20:04;;;;;;;9.48;3.52;;;;;;;12.47;34.33;99709.09;1720427;83;21563;-69
2022/02/20 11:22:37;;;;;;;8.15;3.37;;;;;;;12.08;35.51;99708.89;1720847;83;21547;-69
2022/02/20 11:25:07;;;;;;;8.83;3.30;;;;;;;11.93;34.94;99715.28;1720694;83;21106;-69
2022/02/20 11:27:34;;;;;;;9.28;3.70;;;;;;;11.91;35.10;99698.67;1720350;83;21038;-70
2022/02/20 11:30:01;;;;;;;10.13;3.80;;;;;;;12.15;34.66;99702.37;1720903;82;21591;-69
2022/02/20 11:32:28;;;;;;;13.13;3.30;;;;;;;12.39;34.32;99691.01;1720539;82;21075;-69
2022/02/20 11:34:54;;;;;;;13.35;4.70;;;;;;;11.91;35.22;99690.76;1720487;83;21130;-69
2022/02/20 11:37:20;;;;;;;11.18;3.10;;;;;;;11.53;35.39;99683.38;1720260;83;21087;-70
2022/02/20 11:40:01;;;;;;;11.12;3.33;;;;;;;11.30;35.81;99684.48;1720365;83;21051;-70
2022/02/20 11:42:27;;;;;;;8.88;3.33;;;;;;;11.27;36.48;99676.25;1717851;82;21568;-69
2022/02/20 11:45:05;;;;;;;7.37;2.92;;;;;;;11.70;35.38;99663.63;1712747;82;21071;-69
2022/02/20 11:47:44;;;;;;;7.50;3.27;;;;;;;12.14;34.71;99654.45;1712667;83;21119;-70
2022/02/20 11:50:25;;;;;;;10.18;3.37;;;;;;;12.25;34.56;99653.44;1711688;83;21016;-69